sensor_id;sensor_type;location;lat;lon;timestamp;P1;durP1;ratioP1;P2;durP2;ratioP2
52776;SDS011;38656;54.260;20.822;2023-03-19T16:17:13;271.80;;;106.03;;
52776;SDS011;38656;54.260;20.822;2023-03-19T16:19:51;100.18;;;46.67;;
52776;SDS011;38656;54.260;20.822;2023-03-19T16:22:23;63.83;;;34.55;;
52776;SDS011;38656;54.260;20.822;2023-03-19T16:24:54;55.13;;;37.28;;
52776;SDS011;38656;54.260;20.822;2023-03-19T16:27:38;172.57;;;75.75;;
52776;SDS011;38656;54.260;20.822;2023-03-19T16:30:24;476.90;;;256.10;;
52776;SDS011;38656;54.260;20.822;2023-03-19T16:33:01;505.48;;;274.33;;
52776;SDS011;38656;54.260;20.822;2023-03-19T16:35:30;387.25;;;173.75;;
52776;SDS011;38656;54.260;20.822;2023-03-19T16:38:05;414.80;;;185.43;;
52776;SDS011;38656;54.260;20.822;2023-03-19T16:40:39;406.50;;;179.10;;
52776;SDS011;38656;54.260;20.822;2023-03-19T16:43:21;380.83;;;173.63;;
52776;SDS011;38656;54.260;20.822;2023-03-19T16:45:50;379.60;;;177.32;;
52776;SDS011;38656;54.260;20.822;2023-03-19T16:48:27;489.85;;;264.42;;
52776;SDS011;38656;54.260;20.822;2023-03-19T16:50:53;511.05;;;305.05;;
52776;SDS011;38656;54.260;20.822;2023-03-19T16:53:27;187.00;;;83.30;;
52776;SDS011;38656;54.260;20.822;2023-03-19T16:55:55;225.30;;;81.50;;
52776;SDS011;38656;54.260;20.822;2023-03-19T16:58:33;77.57;;;52.30;;
52776;SDS011;38656;54.260;20.822;2023-03-19T17:01:03;83.82;;;48.00;;
52776;SDS011;38656;54.260;20.822;2023-03-19T17:03:44;89.28;;;57.83;;
52776;SDS011;38656;54.260;20.822;2023-03-19T17:06:11;95.95;;;56.92;;
52776;SDS011;38656;54.260;20.822;2023-03-19T17:08:38;78.95;;;48.85;;
52776;SDS011;38656;54.260;20.822;2023-03-19T17:11:05;176.10;;;80.40;;
52776;SDS011;38656;54.260;20.822;2023-03-19T17:13:51;99.57;;;60.47;;
52776;SDS011;38656;54.260;20.822;2023-03-19T17:16:19;69.93;;;49.70;;
52776;SDS011;38656;54.260;20.822;2023-03-19T17:18:46;66.47;;;44.47;;
52776;SDS011;38656;54.260;20.822;2023-03-19T17:21:25;76.28;;;50.35;;
52776;SDS011;38656;54.260;20.822;2023-03-19T17:23:55;64.32;;;46.47;;
52776;SDS011;38656;54.260;20.822;2023-03-19T17:26:22;86.03;;;51.55;;
52776;SDS011;38656;54.260;20.822;2023-03-19T17:28:50;243.27;;;95.68;;
52776;SDS011;38656;54.260;20.822;2023-03-19T17:34:08;125.28;;;62.92;;
52776;SDS011;38656;54.260;20.822;2023-03-19T17:36:36;175.77;;;73.83;;
52776;SDS011;38656;54.260;20.822;2023-03-19T17:39:03;116.22;;;61.72;;
52776;SDS011;38656;54.260;20.822;2023-03-19T17:41:31;142.10;;;69.28;;
52776;SDS011;38656;54.260;20.822;2023-03-19T17:43:59;189.90;;;81.25;;
52776;SDS011;38656;54.260;20.822;2023-03-19T17:46:28;207.45;;;87.85;;
52776;SDS011;38656;54.260;20.822;2023-03-19T17:49:24;236.52;;;100.60;;
52776;SDS011;38656;54.260;20.822;2023-03-19T17:51:53;289.85;;;123.53;;
52776;SDS011;38656;54.260;20.822;2023-03-19T17:54:20;271.10;;;116.43;;
52776;SDS011;38656;54.260;20.822;2023-03-19T17:56:46;277.85;;;120.90;;
52776;SDS011;38656;54.260;20.822;2023-03-19T17:59:13;277.83;;;123.18;;
52776;SDS011;38656;54.260;20.822;2023-03-19T18:01:39;301.73;;;124.05;;
52776;SDS011;38656;54.260;20.822;2023-03-19T18:04:18;301.25;;;123.97;;
52776;SDS011;38656;54.260;20.822;2023-03-19T18:06:50;288.88;;;124.45;;
52776;SDS011;38656;54.260;20.822;2023-03-19T18:09:19;270.98;;;113.82;;
52776;SDS011;38656;54.260;20.822;2023-03-19T18:11:52;261.05;;;111.20;;
52776;SDS011;38656;54.260;20.822;2023-03-19T18:14:18;232.93;;;108.63;;
52776;SDS011;38656;54.260;20.822;2023-03-19T18:16:45;247.63;;;106.30;;
52776;SDS011;38656;54.260;20.822;2023-03-19T18:19:34;246.88;;;106.03;;
52776;SDS011;38656;54.260;20.822;2023-03-19T18:22:00;215.27;;;100.03;;
52776;SDS011;38656;54.260;20.822;2023-03-19T18:24:30;235.68;;;107.07;;
52776;SDS011;38656;54.260;20.822;2023-03-19T18:26:56;252.00;;;113.43;;
52776;SDS011;38656;54.260;20.822;2023-03-19T18:29:22;228.20;;;114.28;;
52776;SDS011;38656;54.260;20.822;2023-03-19T18:31:48;185.27;;;92.60;;
52776;SDS011;38656;54.260;20.822;2023-03-19T18:34:15;185.82;;;79.15;;
52776;SDS011;38656;54.260;20.822;2023-03-19T18:36:41;150.50;;;68.53;;
52776;SDS011;38656;54.260;20.822;2023-03-19T18:39:11;199.63;;;83.00;;
52776;SDS011;38656;54.260;20.822;2023-03-19T18:41:39;217.35;;;90.05;;
52776;SDS011;38656;54.260;20.822;2023-03-19T18:44:05;206.02;;;87.78;;
52776;SDS011;38656;54.260;20.822;2023-03-19T18:46:33;243.65;;;95.28;;
52776;SDS011;38656;54.260;20.822;2023-03-19T18:49:01;248.50;;;97.90;;
52776;SDS011;38656;54.260;20.822;2023-03-19T18:51:34;257.95;;;103.00;;
52776;SDS011;38656;54.260;20.822;2023-03-19T18:54:00;295.90;;;118.75;;
52776;SDS011;38656;54.260;20.822;2023-03-19T18:56:30;433.48;;;177.13;;
52776;SDS011;38656;54.260;20.822;2023-03-19T18:59:27;457.33;;;185.00;;
52776;SDS011;38656;54.260;20.822;2023-03-19T19:02:29;451.65;;;194.18;;
52776;SDS011;38656;54.260;20.822;2023-03-19T19:04:57;461.90;;;215.98;;
52776;SDS011;38656;54.260;20.822;2023-03-19T19:07:25;479.77;;;262.45;;
52776;SDS011;38656;54.260;20.822;2023-03-19T19:09:51;431.30;;;198.65;;
52776;SDS011;38656;54.260;20.822;2023-03-19T19:12:17;387.67;;;156.10;;
52776;SDS011;38656;54.260;20.822;2023-03-19T19:14:44;379.67;;;160.50;;
52776;SDS011;38656;54.260;20.822;2023-03-19T19:17:18;346.42;;;143.57;;
52776;SDS011;38656;54.260;20.822;2023-03-19T19:19:48;319.23;;;135.18;;
52776;SDS011;38656;54.260;20.822;2023-03-19T19:22:14;323.35;;;132.23;;
52776;SDS011;38656;54.260;20.822;2023-03-19T19:24:42;320.90;;;131.32;;
52776;SDS011;38656;54.260;20.822;2023-03-19T19:27:19;282.23;;;120.60;;
52776;SDS011;38656;54.260;20.822;2023-03-19T19:29:49;263.63;;;114.15;;
52776;SDS011;38656;54.260;20.822;2023-03-19T19:32:27;289.98;;;117.78;;
52776;SDS011;38656;54.260;20.822;2023-03-19T19:34:54;286.65;;;118.90;;
52776;SDS011;38656;54.260;20.822;2023-03-19T19:37:21;270.60;;;117.10;;
52776;SDS011;38656;54.260;20.822;2023-03-19T19:39:48;285.17;;;116.15;;
52776;SDS011;38656;54.260;20.822;2023-03-19T19:42:15;263.75;;;115.05;;
52776;SDS011;38656;54.260;20.822;2023-03-19T19:44:50;282.40;;;120.45;;
52776;SDS011;38656;54.260;20.822;2023-03-19T19:47:19;254.57;;;106.32;;
52776;SDS011;38656;54.260;20.822;2023-03-19T19:49:45;259.70;;;107.10;;
52776;SDS011;38656;54.260;20.822;2023-03-19T19:52:14;263.35;;;111.95;;
52776;SDS011;38656;54.260;20.822;2023-03-19T19:54:43;289.27;;;116.82;;
52776;SDS011;38656;54.260;20.822;2023-03-19T19:57:14;268.85;;;109.13;;
52776;SDS011;38656;54.260;20.822;2023-03-19T19:59:43;274.80;;;116.40;;
52776;SDS011;38656;54.260;20.822;2023-03-19T20:04:52;313.02;;;127.07;;
52776;SDS011;38656;54.260;20.822;2023-03-19T20:07:19;300.60;;;126.60;;
52776;SDS011;38656;54.260;20.822;2023-03-19T20:09:46;293.05;;;125.55;;
52776;SDS011;38656;54.260;20.822;2023-03-19T20:12:25;358.40;;;143.05;;
52776;SDS011;38656;54.260;20.822;2023-03-19T20:14:55;239.57;;;94.85;;
52776;SDS011;38656;54.260;20.822;2023-03-19T20:17:21;186.82;;;80.35;;
52776;SDS011;38656;54.260;20.822;2023-03-19T20:19:48;112.65;;;59.10;;
52776;SDS011;38656;54.260;20.822;2023-03-19T20:22:15;146.35;;;67.15;;
52776;SDS011;38656;54.260;20.822;2023-03-19T20:24:41;165.68;;;78.50;;
52776;SDS011;38656;54.260;20.822;2023-03-19T20:27:14;183.82;;;87.63;;
52776;SDS011;38656;54.260;20.822;2023-03-19T20:29:44;137.63;;;73.93;;
52776;SDS011;38656;54.260;20.822;2023-03-19T20:32:22;132.88;;;71.22;;
52776;SDS011;38656;54.260;20.822;2023-03-19T20:34:56;136.27;;;69.85;;
52776;SDS011;38656;54.260;20.822;2023-03-19T20:37:25;114.78;;;61.00;;
52776;SDS011;38656;54.260;20.822;2023-03-19T20:39:51;76.63;;;51.92;;
52776;SDS011;38656;54.260;20.822;2023-03-19T20:42:27;60.88;;;42.47;;
52776;SDS011;38656;54.260;20.822;2023-03-19T20:44:56;83.10;;;47.45;;
52776;SDS011;38656;54.260;20.822;2023-03-19T20:47:23;96.43;;;49.83;;
52776;SDS011;38656;54.260;20.822;2023-03-19T20:49:50;90.88;;;51.67;;
52776;SDS011;38656;54.260;20.822;2023-03-19T20:52:26;156.45;;;64.80;;
52776;SDS011;38656;54.260;20.822;2023-03-19T20:54:53;189.05;;;75.30;;
52776;SDS011;38656;54.260;20.822;2023-03-19T20:57:23;283.30;;;104.35;;
52776;SDS011;38656;54.260;20.822;2023-03-19T20:59:53;203.82;;;84.93;;
52776;SDS011;38656;54.260;20.822;2023-03-19T21:02:20;260.38;;;105.68;;
52776;SDS011;38656;54.260;20.822;2023-03-19T21:04:48;221.38;;;91.45;;
52776;SDS011;38656;54.260;20.822;2023-03-19T21:09:57;226.68;;;95.28;;
52776;SDS011;38656;54.260;20.822;2023-03-19T21:12:28;244.55;;;106.00;;
52776;SDS011;38656;54.260;20.822;2023-03-19T21:14:56;245.50;;;106.57;;
52776;SDS011;38656;54.260;20.822;2023-03-19T21:17:24;237.00;;;103.47;;
52776;SDS011;38656;54.260;20.822;2023-03-19T21:19:52;255.38;;;104.57;;
52776;SDS011;38656;54.260;20.822;2023-03-19T21:22:25;244.65;;;104.07;;
52776;SDS011;38656;54.260;20.822;2023-03-19T21:25:00;266.08;;;112.78;;
52776;SDS011;38656;54.260;20.822;2023-03-19T21:27:32;251.50;;;107.93;;
52776;SDS011;38656;54.260;20.822;2023-03-19T21:30:12;256.10;;;107.75;;
52776;SDS011;38656;54.260;20.822;2023-03-19T21:32:40;241.38;;;102.40;;
52776;SDS011;38656;54.260;20.822;2023-03-19T21:35:16;214.68;;;90.88;;
52776;SDS011;38656;54.260;20.822;2023-03-19T21:37:56;229.38;;;96.78;;
52776;SDS011;38656;54.260;20.822;2023-03-19T21:40:27;229.85;;;100.13;;
52776;SDS011;38656;54.260;20.822;2023-03-19T21:42:55;239.55;;;96.45;;
52776;SDS011;38656;54.260;20.822;2023-03-19T21:45:28;231.90;;;103.53;;
52776;SDS011;38656;54.260;20.822;2023-03-19T21:48:01;235.82;;;103.15;;
52776;SDS011;38656;54.260;20.822;2023-03-19T21:50:53;258.40;;;112.82;;
52776;SDS011;38656;54.260;20.822;2023-03-19T21:53:20;298.00;;;123.13;;
52776;SDS011;38656;54.260;20.822;2023-03-19T21:55:48;283.15;;;114.57;;
52776;SDS011;38656;54.260;20.822;2023-03-19T21:58:16;259.20;;;117.55;;
52776;SDS011;38656;54.260;20.822;2023-03-19T22:00:56;306.95;;;127.95;;
52776;SDS011;38656;54.260;20.822;2023-03-19T22:03:29;283.52;;;124.85;;
52776;SDS011;38656;54.260;20.822;2023-03-19T22:05:56;290.00;;;127.22;;
52776;SDS011;38656;54.260;20.822;2023-03-19T22:08:23;289.45;;;123.68;;
52776;SDS011;38656;54.260;20.822;2023-03-19T22:10:56;287.50;;;125.38;;
52776;SDS011;38656;54.260;20.822;2023-03-19T22:13:25;302.77;;;130.85;;
52776;SDS011;38656;54.260;20.822;2023-03-19T22:15:57;303.55;;;129.98;;
52776;SDS011;38656;54.260;20.822;2023-03-19T22:18:27;325.65;;;133.60;;
52776;SDS011;38656;54.260;20.822;2023-03-19T22:20:54;325.67;;;140.77;;
52776;SDS011;38656;54.260;20.822;2023-03-19T22:23:23;337.30;;;139.68;;
52776;SDS011;38656;54.260;20.822;2023-03-19T22:25:50;339.88;;;148.27;;
52776;SDS011;38656;54.260;20.822;2023-03-19T22:28:35;348.42;;;148.05;;
52776;SDS011;38656;54.260;20.822;2023-03-19T22:31:01;333.80;;;144.43;;
52776;SDS011;38656;54.260;20.822;2023-03-19T22:33:28;327.70;;;144.48;;
52776;SDS011;38656;54.260;20.822;2023-03-19T22:35:54;330.17;;;140.18;;
52776;SDS011;38656;54.260;20.822;2023-03-19T22:38:21;326.27;;;143.40;;
52776;SDS011;38656;54.260;20.822;2023-03-19T22:40:48;325.63;;;139.38;;
52776;SDS011;38656;54.260;20.822;2023-03-19T22:45:52;340.35;;;143.02;;
52776;SDS011;38656;54.260;20.822;2023-03-19T22:48:20;333.08;;;140.48;;
52776;SDS011;38656;54.260;20.822;2023-03-19T22:50:47;298.42;;;134.32;;
52776;SDS011;38656;54.260;20.822;2023-03-19T22:53:20;276.45;;;121.07;;
52776;SDS011;38656;54.260;20.822;2023-03-19T22:55:54;198.23;;;83.63;;
52776;SDS011;38656;54.260;20.822;2023-03-19T22:58:21;173.07;;;80.20;;
52776;SDS011;38656;54.260;20.822;2023-03-19T23:00:59;175.13;;;81.10;;
52776;SDS011;38656;54.260;20.822;2023-03-19T23:03:27;181.93;;;84.53;;
52776;SDS011;38656;54.260;20.822;2023-03-19T23:06:01;176.00;;;80.43;;
52776;SDS011;38656;54.260;20.822;2023-03-19T23:08:31;156.88;;;75.25;;
52776;SDS011;38656;54.260;20.822;2023-03-19T23:10:57;151.38;;;71.15;;
52776;SDS011;38656;54.260;20.822;2023-03-19T23:13:23;148.18;;;69.93;;
52776;SDS011;38656;54.260;20.822;2023-03-19T23:15:57;120.60;;;60.95;;
52776;SDS011;38656;54.260;20.822;2023-03-19T23:18:28;116.50;;;61.13;;
52776;SDS011;38656;54.260;20.822;2023-03-19T23:21:00;131.55;;;65.30;;
52776;SDS011;38656;54.260;20.822;2023-03-19T23:23:27;109.03;;;62.05;;
52776;SDS011;38656;54.260;20.822;2023-03-19T23:25:55;121.13;;;62.05;;
52776;SDS011;38656;54.260;20.822;2023-03-19T23:28:28;112.72;;;59.70;;
52776;SDS011;38656;54.260;20.822;2023-03-19T23:30:56;110.40;;;59.38;;
52776;SDS011;38656;54.260;20.822;2023-03-19T23:33:34;117.70;;;59.80;;
52776;SDS011;38656;54.260;20.822;2023-03-19T23:36:01;113.00;;;61.95;;
52776;SDS011;38656;54.260;20.822;2023-03-19T23:38:27;135.57;;;69.35;;
52776;SDS011;38656;54.260;20.822;2023-03-19T23:40:53;166.98;;;72.78;;
52776;SDS011;38656;54.260;20.822;2023-03-19T23:43:21;182.30;;;81.47;;
52776;SDS011;38656;54.260;20.822;2023-03-19T23:45:51;245.13;;;106.28;;
52776;SDS011;38656;54.260;20.822;2023-03-19T23:48:34;213.48;;;94.05;;
52776;SDS011;38656;54.260;20.822;2023-03-19T23:51:03;264.70;;;118.68;;
52776;SDS011;38656;54.260;20.822;2023-03-19T23:53:30;249.02;;;112.45;;
52776;SDS011;38656;54.260;20.822;2023-03-19T23:56:01;243.27;;;108.47;;
52776;SDS011;38656;54.260;20.822;2023-03-19T23:58:32;244.93;;;106.95;;
